sensor_id;sensor_type;location;lat;lon;timestamp;pressure;altitude;pressure_sealevel;temperature;humidity
43804;BME280;29430;52.924;-2.388;2023-04-25T00:01:34;99319.19;;;4.15;62.27
43804;BME280;29430;52.924;-2.388;2023-04-25T00:06:27;99324.47;;;4.08;62.24
43804;BME280;29430;52.924;-2.388;2023-04-25T00:11:19;99319.38;;;3.99;62.88
43804;BME280;29430;52.924;-2.388;2023-04-25T00:16:11;99321.59;;;3.95;62.65
43804;BME280;29430;52.924;-2.388;2023-04-25T00:21:05;99322.31;;;3.89;63.05
43804;BME280;29430;52.924;-2.388;2023-04-25T00:25:57;99322.06;;;3.84;63.42
43804;BME280;29430;52.924;-2.388;2023-04-25T00:30:49;99327.16;;;3.79;63.87
43804;BME280;29430;52.924;-2.388;2023-04-25T00:35:42;99330.75;;;3.71;64.34
43804;BME280;29430;52.924;-2.388;2023-04-25T00:40:34;99328.78;;;3.65;64.52
43804;BME280;29430;52.924;-2.388;2023-04-25T00:45:28;99337.56;;;3.58;64.86
43804;BME280;29430;52.924;-2.388;2023-04-25T00:50:21;99335.78;;;3.51;65.43
43804;BME280;29430;52.924;-2.388;2023-04-25T00:55:13;99332.97;;;3.44;66.13
43804;BME280;29430;52.924;-2.388;2023-04-25T01:00:05;99333.69;;;3.38;66.14
43804;BME280;29430;52.924;-2.388;2023-04-25T01:04:58;99338.13;;;3.31;66.21
43804;BME280;29430;52.924;-2.388;2023-04-25T01:09:51;99340.50;;;3.26;66.26
43804;BME280;29430;52.924;-2.388;2023-04-25T01:14:43;99338.34;;;3.21;66.59
43804;BME280;29430;52.924;-2.388;2023-04-25T01:19:35;99344.09;;;3.18;67.15
43804;BME280;29430;52.924;-2.388;2023-04-25T01:24:27;99339.94;;;3.15;66.66
43804;BME280;29430;52.924;-2.388;2023-04-25T01:29:19;99346.47;;;3.13;66.97
43804;BME280;29430;52.924;-2.388;2023-04-25T01:34:12;99353.16;;;3.17;67.31
43804;BME280;29430;52.924;-2.388;2023-04-25T01:39:04;99342.44;;;3.17;67.54
43804;BME280;29430;52.924;-2.388;2023-04-25T01:43:56;99356.66;;;3.17;67.69
43804;BME280;29430;52.924;-2.388;2023-04-25T01:48:49;99346.13;;;3.16;67.56
43804;BME280;29430;52.924;-2.388;2023-04-25T01:53:42;99337.44;;;3.14;67.54
43804;BME280;29430;52.924;-2.388;2023-04-25T01:58:34;99346.66;;;3.11;67.84
43804;BME280;29430;52.924;-2.388;2023-04-25T02:03:26;99339.31;;;3.05;68.25
43804;BME280;29430;52.924;-2.388;2023-04-25T02:08:17;99354.06;;;3.01;68.29
43804;BME280;29430;52.924;-2.388;2023-04-25T02:13:10;99343.91;;;2.96;68.29
43804;BME280;29430;52.924;-2.388;2023-04-25T02:18:02;99347.59;;;2.95;68.42
43804;BME280;29430;52.924;-2.388;2023-04-25T02:22:53;99354.69;;;2.88;68.65
43804;BME280;29430;52.924;-2.388;2023-04-25T02:27:46;99352.16;;;2.86;68.91
43804;BME280;29430;52.924;-2.388;2023-04-25T02:32:39;99358.72;;;2.84;68.81
43804;BME280;29430;52.924;-2.388;2023-04-25T02:37:35;99352.41;;;2.77;69.26
43804;BME280;29430;52.924;-2.388;2023-04-25T02:42:27;99360.13;;;2.72;69.61
43804;BME280;29430;52.924;-2.388;2023-04-25T02:47:19;99370.19;;;2.69;69.80
43804;BME280;29430;52.924;-2.388;2023-04-25T02:52:11;99378.72;;;2.65;69.84
43804;BME280;29430;52.924;-2.388;2023-04-25T02:57:03;99368.72;;;2.59;70.48
43804;BME280;29430;52.924;-2.388;2023-04-25T03:01:55;99366.41;;;2.56;70.74
43804;BME280;29430;52.924;-2.388;2023-04-25T03:06:46;99363.25;;;2.52;70.27
43804;BME280;29430;52.924;-2.388;2023-04-25T03:11:38;99375.13;;;2.49;70.51
43804;BME280;29430;52.924;-2.388;2023-04-25T03:16:30;99379.81;;;2.47;70.85
43804;BME280;29430;52.924;-2.388;2023-04-25T03:21:23;99383.84;;;2.43;70.92
43804;BME280;29430;52.924;-2.388;2023-04-25T03:26:14;99388.91;;;2.38;71.32
43804;BME280;29430;52.924;-2.388;2023-04-25T03:31:06;99385.06;;;2.32;71.60
43804;BME280;29430;52.924;-2.388;2023-04-25T03:35:58;99391.59;;;2.30;71.93
43804;BME280;29430;52.924;-2.388;2023-04-25T03:40:51;99398.47;;;2.24;72.15
43804;BME280;29430;52.924;-2.388;2023-04-25T03:45:42;99402.19;;;2.15;72.80
43804;BME280;29430;52.924;-2.388;2023-04-25T03:50:34;99404.84;;;2.07;72.71
43804;BME280;29430;52.924;-2.388;2023-04-25T03:55:26;99390.34;;;2.01;73.36
43804;BME280;29430;52.924;-2.388;2023-04-25T04:00:18;99380.16;;;1.96;73.58
43804;BME280;29430;52.924;-2.388;2023-04-25T04:05:09;99383.16;;;1.93;74.30
43804;BME280;29430;52.924;-2.388;2023-04-25T04:10:01;99390.50;;;1.91;74.30
43804;BME280;29430;52.924;-2.388;2023-04-25T04:14:53;99378.16;;;1.90;74.73
43804;BME280;29430;52.924;-2.388;2023-04-25T04:19:45;99387.19;;;1.89;74.50
43804;BME280;29430;52.924;-2.388;2023-04-25T04:24:36;99380.16;;;1.88;74.76
43804;BME280;29430;52.924;-2.388;2023-04-25T04:29:28;99396.53;;;1.85;74.79
43804;BME280;29430;52.924;-2.388;2023-04-25T04:34:19;99391.53;;;1.82;74.87
43804;BME280;29430;52.924;-2.388;2023-04-25T04:39:12;99397.22;;;1.79;75.00
43804;BME280;29430;52.924;-2.388;2023-04-25T04:44:04;99399.56;;;1.74;75.48
43804;BME280;29430;52.924;-2.388;2023-04-25T04:48:57;99398.22;;;1.70;75.74
43804;BME280;29430;52.924;-2.388;2023-04-25T04:53:50;99400.56;;;1.65;76.20
43804;BME280;29430;52.924;-2.388;2023-04-25T04:58:42;99412.41;;;1.62;76.14
43804;BME280;29430;52.924;-2.388;2023-04-25T05:03:33;99419.78;;;1.60;76.68
43804;BME280;29430;52.924;-2.388;2023-04-25T05:08:25;99427.47;;;1.55;76.67
43804;BME280;29430;52.924;-2.388;2023-04-25T05:13:17;99431.16;;;1.46;77.42
43804;BME280;29430;52.924;-2.388;2023-04-25T05:18:09;99439.66;;;1.49;77.72
43804;BME280;29430;52.924;-2.388;2023-04-25T05:23:01;99441.00;;;1.53;78.23
43804;BME280;29430;52.924;-2.388;2023-04-25T05:27:52;99444.19;;;1.57;77.88
43804;BME280;29430;52.924;-2.388;2023-04-25T05:32:44;99442.84;;;1.61;78.42
43804;BME280;29430;52.924;-2.388;2023-04-25T05:37:36;99449.84;;;1.95;79.91
43804;BME280;29430;52.924;-2.388;2023-04-25T05:42:28;99459.41;;;2.62;80.06
43804;BME280;29430;52.924;-2.388;2023-04-25T05:47:19;99453.69;;;3.36;77.34
43804;BME280;29430;52.924;-2.388;2023-04-25T05:52:11;99450.78;;;4.07;75.08
43804;BME280;29430;52.924;-2.388;2023-04-25T05:57:03;99450.28;;;4.71;73.86
43804;BME280;29430;52.924;-2.388;2023-04-25T06:01:55;99455.97;;;5.34;71.94
43804;BME280;29430;52.924;-2.388;2023-04-25T06:06:46;99448.97;;;5.98;71.05
43804;BME280;29430;52.924;-2.388;2023-04-25T06:11:38;99460.50;;;6.77;68.97
43804;BME280;29430;52.924;-2.388;2023-04-25T06:16:29;99461.41;;;7.59;66.12
43804;BME280;29430;52.924;-2.388;2023-04-25T06:21:21;99453.94;;;8.55;62.12
43804;BME280;29430;52.924;-2.388;2023-04-25T06:26:12;99467.47;;;9.20;57.70
43804;BME280;29430;52.924;-2.388;2023-04-25T06:31:04;99467.88;;;9.62;54.60
43804;BME280;29430;52.924;-2.388;2023-04-25T06:35:56;99462.00;;;9.97;51.84
43804;BME280;29430;52.924;-2.388;2023-04-25T06:40:47;99468.44;;;10.03;51.30
43804;BME280;29430;52.924;-2.388;2023-04-25T06:45:39;99464.38;;;10.44;52.05
43804;BME280;29430;52.924;-2.388;2023-04-25T06:50:31;99473.88;;;10.72;49.66
43804;BME280;29430;52.924;-2.388;2023-04-25T06:55:22;99484.03;;;11.32;48.82
43804;BME280;29430;52.924;-2.388;2023-04-25T07:00:14;99485.50;;;11.65;45.94
43804;BME280;29430;52.924;-2.388;2023-04-25T07:05:06;99493.31;;;12.15;48.58
43804;BME280;29430;52.924;-2.388;2023-04-25T07:09:58;99504.97;;;12.70;44.69
43804;BME280;29430;52.924;-2.388;2023-04-25T07:14:49;99499.69;;;13.28;45.58
43804;BME280;29430;52.924;-2.388;2023-04-25T07:19:41;99495.16;;;14.03;44.51
43804;BME280;29430;52.924;-2.388;2023-04-25T07:24:33;99504.34;;;14.47;42.82
43804;BME280;29430;52.924;-2.388;2023-04-25T07:29:25;99506.22;;;14.47;41.48
43804;BME280;29430;52.924;-2.388;2023-04-25T07:34:17;99508.06;;;14.58;40.63
43804;BME280;29430;52.924;-2.388;2023-04-25T07:39:08;99510.41;;;15.06;40.85
43804;BME280;29430;52.924;-2.388;2023-04-25T07:44:03;99516.44;;;15.74;40.17
43804;BME280;29430;52.924;-2.388;2023-04-25T07:48:55;99516.81;;;15.83;39.46
43804;BME280;29430;52.924;-2.388;2023-04-25T07:53:46;99510.69;;;15.98;36.93
43804;BME280;29430;52.924;-2.388;2023-04-25T07:58:40;99516.44;;;15.74;37.53
43804;BME280;29430;52.924;-2.388;2023-04-25T08:03:32;99513.03;;;16.16;36.59
43804;BME280;29430;52.924;-2.388;2023-04-25T08:08:24;99512.38;;;16.69;37.52
43804;BME280;29430;52.924;-2.388;2023-04-25T08:13:16;99521.44;;;17.17;34.18
43804;BME280;29430;52.924;-2.388;2023-04-25T08:18:08;99519.59;;;16.85;35.29
43804;BME280;29430;52.924;-2.388;2023-04-25T08:22:59;99521.91;;;16.98;34.50
43804;BME280;29430;52.924;-2.388;2023-04-25T08:27:51;99527.50;;;16.81;32.88
43804;BME280;29430;52.924;-2.388;2023-04-25T08:32:43;99527.38;;;16.98;33.47
43804;BME280;29430;52.924;-2.388;2023-04-25T08:37:35;99526.63;;;16.76;33.82
43804;BME280;29430;52.924;-2.388;2023-04-25T08:42:28;99522.75;;;16.67;34.73
43804;BME280;29430;52.924;-2.388;2023-04-25T08:47:22;99524.88;;;17.50;34.49
43804;BME280;29430;52.924;-2.388;2023-04-25T08:52:14;99531.41;;;18.38;35.16
43804;BME280;29430;52.924;-2.388;2023-04-25T08:57:06;99527.28;;;18.61;32.25
43804;BME280;29430;52.924;-2.388;2023-04-25T09:01:58;99522.06;;;18.13;32.01
43804;BME280;29430;52.924;-2.388;2023-04-25T09:06:50;99523.97;;;18.07;32.53
43804;BME280;29430;52.924;-2.388;2023-04-25T09:11:42;99532.50;;;18.06;32.12
43804;BME280;29430;52.924;-2.388;2023-04-25T09:16:33;99529.75;;;18.63;34.38
43804;BME280;29430;52.924;-2.388;2023-04-25T09:21:28;99526.59;;;19.36;32.85
43804;BME280;29430;52.924;-2.388;2023-04-25T09:26:22;99534.59;;;19.32;32.74
43804;BME280;29430;52.924;-2.388;2023-04-25T09:31:22;99535.25;;;19.79;29.30
43804;BME280;29430;52.924;-2.388;2023-04-25T09:36:15;99536.66;;;19.61;29.41
43804;BME280;29430;52.924;-2.388;2023-04-25T09:41:08;99539.53;;;19.41;29.73
43804;BME280;29430;52.924;-2.388;2023-04-25T09:46:00;99540.63;;;19.40;28.93
43804;BME280;29430;52.924;-2.388;2023-04-25T09:51:09;99529.13;;;19.22;30.24
43804;BME280;29430;52.924;-2.388;2023-04-25T09:56:03;99534.97;;;19.71;28.58
43804;BME280;29430;52.924;-2.388;2023-04-25T10:01:05;99537.56;;;20.07;30.62
43804;BME280;29430;52.924;-2.388;2023-04-25T10:06:06;99534.31;;;20.39;26.78
43804;BME280;29430;52.924;-2.388;2023-04-25T10:11:00;99524.25;;;19.74;27.80
43804;BME280;29430;52.924;-2.388;2023-04-25T10:15:53;99533.38;;;19.59;29.41
43804;BME280;29430;52.924;-2.388;2023-04-25T10:20:45;99535.41;;;19.33;28.33
43804;BME280;29430;52.924;-2.388;2023-04-25T10:25:37;99539.00;;;19.39;31.21
43804;BME280;29430;52.924;-2.388;2023-04-25T10:30:29;99532.25;;;19.65;29.80
43804;BME280;29430;52.924;-2.388;2023-04-25T10:35:28;99536.59;;;19.01;29.02
43804;BME280;29430;52.924;-2.388;2023-04-25T10:40:24;99537.47;;;18.71;28.73
43804;BME280;29430;52.924;-2.388;2023-04-25T10:45:16;99537.72;;;18.49;28.96
43804;BME280;29430;52.924;-2.388;2023-04-25T10:50:08;99534.72;;;18.24;30.19
43804;BME280;29430;52.924;-2.388;2023-04-25T10:55:04;99524.84;;;18.49;31.03
43804;BME280;29430;52.924;-2.388;2023-04-25T11:00:20;99530.31;;;18.49;29.10
43804;BME280;29430;52.924;-2.388;2023-04-25T11:10:13;99529.09;;;19.32;28.77
43804;BME280;29430;52.924;-2.388;2023-04-25T11:15:06;99528.38;;;18.39;28.26
43804;BME280;29430;52.924;-2.388;2023-04-25T11:19:59;99524.00;;;18.23;28.06
43804;BME280;29430;52.924;-2.388;2023-04-25T11:24:51;99533.38;;;17.43;29.49
43804;BME280;29430;52.924;-2.388;2023-04-25T11:29:43;99525.28;;;17.84;30.32
43804;BME280;29430;52.924;-2.388;2023-04-25T11:34:34;99523.56;;;17.63;28.44
43804;BME280;29430;52.924;-2.388;2023-04-25T11:39:27;99533.53;;;16.46;29.82
43804;BME280;29430;52.924;-2.388;2023-04-25T11:44:19;99532.22;;;15.67;30.59
43804;BME280;29430;52.924;-2.388;2023-04-25T11:49:12;99513.31;;;15.87;31.27
43804;BME280;29430;52.924;-2.388;2023-04-25T11:54:04;99524.00;;;16.16;32.32
43804;BME280;29430;52.924;-2.388;2023-04-25T11:58:58;99521.00;;;16.88;32.27
43804;BME280;29430;52.924;-2.388;2023-04-25T12:03:52;99505.66;;;17.40;30.46
43804;BME280;29430;52.924;-2.388;2023-04-25T12:09:04;99511.50;;;16.63;28.96
43804;BME280;29430;52.924;-2.388;2023-04-25T12:14:04;99524.66;;;16.28;30.66
43804;BME280;29430;52.924;-2.388;2023-04-25T12:18:56;99535.50;;;15.91;31.85
43804;BME280;29430;52.924;-2.388;2023-04-25T12:23:50;99534.28;;;15.82;31.35
43804;BME280;29430;52.924;-2.388;2023-04-25T12:28:45;99528.09;;;16.19;34.13
43804;BME280;29430;52.924;-2.388;2023-04-25T12:33:38;99533.22;;;16.75;31.37
43804;BME280;29430;52.924;-2.388;2023-04-25T12:38:36;99523.84;;;17.03;30.98
43804;BME280;29430;52.924;-2.388;2023-04-25T12:43:28;99523.75;;;17.41;31.45
43804;BME280;29430;52.924;-2.388;2023-04-25T12:48:20;99523.56;;;17.63;31.29
43804;BME280;29430;52.924;-2.388;2023-04-25T12:53:12;99530.38;;;17.50;29.77
43804;BME280;29430;52.924;-2.388;2023-04-25T12:58:03;99544.63;;;16.99;31.52
43804;BME280;29430;52.924;-2.388;2023-04-25T13:02:55;99542.75;;;16.67;32.22
43804;BME280;29430;52.924;-2.388;2023-04-25T13:07:47;99543.94;;;16.44;31.44
43804;BME280;29430;52.924;-2.388;2023-04-25T13:12:39;99547.13;;;16.36;33.21
43804;BME280;29430;52.924;-2.388;2023-04-25T13:17:30;99543.69;;;16.45;33.34
43804;BME280;29430;52.924;-2.388;2023-04-25T13:22:22;99537.09;;;16.14;30.13
43804;BME280;29430;52.924;-2.388;2023-04-25T13:27:13;99540.16;;;15.90;31.61
43804;BME280;29430;52.924;-2.388;2023-04-25T13:32:06;99529.31;;;16.01;33.12
43804;BME280;29430;52.924;-2.388;2023-04-25T13:36:58;99530.53;;;16.15;32.73
43804;BME280;29430;52.924;-2.388;2023-04-25T13:41:53;99526.59;;;16.33;33.45
43804;BME280;29430;52.924;-2.388;2023-04-25T13:46:44;99521.31;;;16.26;31.76
43804;BME280;29430;52.924;-2.388;2023-04-25T13:51:38;99522.66;;;15.91;32.45
43804;BME280;29430;52.924;-2.388;2023-04-25T13:56:30;99518.03;;;15.97;34.10
43804;BME280;29430;52.924;-2.388;2023-04-25T14:01:21;99518.03;;;15.97;32.70
43804;BME280;29430;52.924;-2.388;2023-04-25T14:06:13;99522.41;;;15.93;32.49
43804;BME280;29430;52.924;-2.388;2023-04-25T14:11:08;99515.28;;;15.92;33.23
43804;BME280;29430;52.924;-2.388;2023-04-25T14:16:00;99510.97;;;16.01;31.62
43804;BME280;29430;52.924;-2.388;2023-04-25T14:20:52;99517.50;;;15.95;32.71
43804;BME280;29430;52.924;-2.388;2023-04-25T14:25:43;99517.91;;;16.09;32.30
43804;BME280;29430;52.924;-2.388;2023-04-25T14:30:35;99512.84;;;16.28;31.29
43804;BME280;29430;52.924;-2.388;2023-04-25T14:35:27;99517.75;;;16.21;32.15
43804;BME280;29430;52.924;-2.388;2023-04-25T14:40:19;99515.16;;;15.82;30.57
43804;BME280;29430;52.924;-2.388;2023-04-25T14:45:14;99514.94;;;15.17;30.54
43804;BME280;29430;52.924;-2.388;2023-04-25T14:50:06;99512.66;;;14.92;32.46
43804;BME280;29430;52.924;-2.388;2023-04-25T14:54:58;99502.09;;;14.95;34.63
43804;BME280;29430;52.924;-2.388;2023-04-25T14:59:53;99511.63;;;14.59;31.94
43804;BME280;29430;52.924;-2.388;2023-04-25T15:04:44;99504.84;;;14.27;33.03
43804;BME280;29430;52.924;-2.388;2023-04-25T15:09:36;99503.97;;;13.93;32.71
43804;BME280;29430;52.924;-2.388;2023-04-25T15:14:28;99497.97;;;13.79;32.97
43804;BME280;29430;52.924;-2.388;2023-04-25T15:19:20;99498.22;;;13.77;34.10
43804;BME280;29430;52.924;-2.388;2023-04-25T15:24:12;99496.59;;;13.76;32.64
43804;BME280;29430;52.924;-2.388;2023-04-25T15:29:05;99491.44;;;13.63;31.89
43804;BME280;29430;52.924;-2.388;2023-04-25T15:33:58;99484.56;;;13.60;32.77
43804;BME280;29430;52.924;-2.388;2023-04-25T15:38:49;99472.34;;;13.63;33.22
43804;BME280;29430;52.924;-2.388;2023-04-25T15:43:41;99479.00;;;13.55;33.82
43804;BME280;29430;52.924;-2.388;2023-04-25T15:48:32;99483.13;;;13.17;34.42
43804;BME280;29430;52.924;-2.388;2023-04-25T15:53:24;99485.44;;;12.97;34.07
43804;BME280;29430;52.924;-2.388;2023-04-25T15:58:16;99477.06;;;12.63;34.29
43804;BME280;29430;52.924;-2.388;2023-04-25T16:03:07;99481.56;;;12.45;34.67
43804;BME280;29430;52.924;-2.388;2023-04-25T16:08:00;99480.38;;;12.53;35.77
43804;BME280;29430;52.924;-2.388;2023-04-25T16:12:52;99474.56;;;12.73;35.05
43804;BME280;29430;52.924;-2.388;2023-04-25T16:17:44;99469.38;;;12.71;34.79
43804;BME280;29430;52.924;-2.388;2023-04-25T16:22:38;99462.50;;;12.69;34.66
43804;BME280;29430;52.924;-2.388;2023-04-25T16:27:30;99455.53;;;12.61;33.91
43804;BME280;29430;52.924;-2.388;2023-04-25T16:32:24;99459.44;;;12.65;34.22
43804;BME280;29430;52.924;-2.388;2023-04-25T16:37:16;99456.34;;;12.62;33.62
43804;BME280;29430;52.924;-2.388;2023-04-25T16:42:08;99450.09;;;12.61;33.52
43804;BME280;29430;52.924;-2.388;2023-04-25T16:46:59;99457.78;;;12.64;33.59
43804;BME280;29430;52.924;-2.388;2023-04-25T16:51:51;99451.13;;;12.72;34.81
43804;BME280;29430;52.924;-2.388;2023-04-25T16:56:43;99444.63;;;12.73;33.94
43804;BME280;29430;52.924;-2.388;2023-04-25T17:01:34;99444.41;;;12.75;33.84
43804;BME280;29430;52.924;-2.388;2023-04-25T17:06:26;99444.28;;;12.69;34.32
43804;BME280;29430;52.924;-2.388;2023-04-25T17:11:20;99445.84;;;12.65;34.89
43804;BME280;29430;52.924;-2.388;2023-04-25T17:16:11;99436.72;;;12.71;34.81
43804;BME280;29430;52.924;-2.388;2023-04-25T17:21:07;99436.72;;;12.71;34.36
43804;BME280;29430;52.924;-2.388;2023-04-25T17:25:59;99438.50;;;12.66;34.73
43804;BME280;29430;52.924;-2.388;2023-04-25T17:30:51;99432.31;;;12.70;34.26
43804;BME280;29430;52.924;-2.388;2023-04-25T17:35:42;99425.59;;;12.61;33.92
43804;BME280;29430;52.924;-2.388;2023-04-25T17:40:34;99425.34;;;12.51;34.02
43804;BME280;29430;52.924;-2.388;2023-04-25T17:45:27;99435.78;;;12.42;34.99
43804;BME280;29430;52.924;-2.388;2023-04-25T17:50:24;99424.69;;;12.44;34.59
43804;BME280;29430;52.924;-2.388;2023-04-25T17:55:16;99423.97;;;12.36;33.61
43804;BME280;29430;52.924;-2.388;2023-04-25T18:00:08;99420.88;;;12.21;33.94
43804;BME280;29430;52.924;-2.388;2023-04-25T18:05:02;99431.72;;;12.09;33.86
43804;BME280;29430;52.924;-2.388;2023-04-25T18:10:00;99428.63;;;11.94;33.99
43804;BME280;29430;52.924;-2.388;2023-04-25T18:14:52;99430.53;;;11.93;34.97
43804;BME280;29430;52.924;-2.388;2023-04-25T18:19:43;99430.16;;;11.90;34.86
43804;BME280;29430;52.924;-2.388;2023-04-25T18:24:35;99428.22;;;11.78;35.97
43804;BME280;29430;52.924;-2.388;2023-04-25T18:29:27;99422.31;;;11.81;35.66
43804;BME280;29430;52.924;-2.388;2023-04-25T18:34:24;99431.09;;;11.83;35.59
43804;BME280;29430;52.924;-2.388;2023-04-25T18:39:18;99428.47;;;11.77;35.63
43804;BME280;29430;52.924;-2.388;2023-04-25T18:44:13;99426.81;;;11.76;35.73
43804;BME280;29430;52.924;-2.388;2023-04-25T18:49:05;99432.50;;;11.74;35.85
43804;BME280;29430;52.924;-2.388;2023-04-25T18:53:57;99447.34;;;11.72;36.33
43804;BME280;29430;52.924;-2.388;2023-04-25T18:58:49;99444.75;;;11.65;36.58
43804;BME280;29430;52.924;-2.388;2023-04-25T19:03:42;99449.22;;;11.59;36.65
43804;BME280;29430;52.924;-2.388;2023-04-25T19:08:34;99456.03;;;11.50;36.98
43804;BME280;29430;52.924;-2.388;2023-04-25T19:13:25;99454.00;;;11.45;38.53
43804;BME280;29430;52.924;-2.388;2023-04-25T19:18:18;99463.06;;;11.39;38.23
43804;BME280;29430;52.924;-2.388;2023-04-25T19:23:11;99451.69;;;11.31;38.87
43804;BME280;29430;52.924;-2.388;2023-04-25T19:28:02;99460.59;;;11.19;39.88
43804;BME280;29430;52.924;-2.388;2023-04-25T19:32:54;99459.94;;;11.05;39.65
43804;BME280;29430;52.924;-2.388;2023-04-25T19:37:49;99467.88;;;10.88;40.25
43804;BME280;29430;52.924;-2.388;2023-04-25T19:42:41;99477.22;;;10.74;41.08
43804;BME280;29430;52.924;-2.388;2023-04-25T19:47:33;99477.19;;;10.55;41.78
43804;BME280;29430;52.924;-2.388;2023-04-25T19:52:28;99482.78;;;10.35;42.57
43804;BME280;29430;52.924;-2.388;2023-04-25T19:57:21;99480.88;;;10.11;43.58
43804;BME280;29430;52.924;-2.388;2023-04-25T20:02:13;99481.19;;;9.96;43.59
43804;BME280;29430;52.924;-2.388;2023-04-25T20:07:06;99483.16;;;9.82;44.43
43804;BME280;29430;52.924;-2.388;2023-04-25T20:11:58;99485.97;;;9.68;44.12
43804;BME280;29430;52.924;-2.388;2023-04-25T20:16:49;99488.53;;;9.57;44.11
43804;BME280;29430;52.924;-2.388;2023-04-25T20:21:41;99487.34;;;9.46;44.27
43804;BME280;29430;52.924;-2.388;2023-04-25T20:26:32;99488.03;;;9.35;44.32
43804;BME280;29430;52.924;-2.388;2023-04-25T20:31:24;99473.72;;;9.21;45.56
43804;BME280;29430;52.924;-2.388;2023-04-25T20:36:16;99489.97;;;9.14;45.37
43804;BME280;29430;52.924;-2.388;2023-04-25T20:41:10;99485.63;;;9.06;45.81
43804;BME280;29430;52.924;-2.388;2023-04-25T20:46:02;99485.47;;;8.94;45.49
43804;BME280;29430;52.924;-2.388;2023-04-25T20:50:55;99489.25;;;8.87;45.47
43804;BME280;29430;52.924;-2.388;2023-04-25T20:55:47;99477.81;;;8.78;45.69
43804;BME280;29430;52.924;-2.388;2023-04-25T21:00:38;99468.06;;;8.70;44.96
43804;BME280;29430;52.924;-2.388;2023-04-25T21:05:30;99464.53;;;8.63;46.07
43804;BME280;29430;52.924;-2.388;2023-04-25T21:10:22;99472.06;;;8.54;45.75
43804;BME280;29430;52.924;-2.388;2023-04-25T21:15:15;99459.16;;;8.50;46.26
43804;BME280;29430;52.924;-2.388;2023-04-25T21:20:17;99474.34;;;8.44;46.74
43804;BME280;29430;52.924;-2.388;2023-04-25T21:25:09;99475.56;;;8.35;46.62
43804;BME280;29430;52.924;-2.388;2023-04-25T21:30:01;99477.22;;;8.29;46.64
43804;BME280;29430;52.924;-2.388;2023-04-25T21:34:52;99474.31;;;8.24;47.06
43804;BME280;29430;52.924;-2.388;2023-04-25T21:39:44;99484.09;;;8.18;47.14
43804;BME280;29430;52.924;-2.388;2023-04-25T21:44:38;99489.28;;;8.13;47.52
43804;BME280;29430;52.924;-2.388;2023-04-25T21:49:30;99481.00;;;8.08;47.74
43804;BME280;29430;52.924;-2.388;2023-04-25T21:54:23;99484.50;;;8.02;47.64
43804;BME280;29430;52.924;-2.388;2023-04-25T21:59:14;99477.66;;;7.93;48.15
43804;BME280;29430;52.924;-2.388;2023-04-25T22:04:06;99481.78;;;7.88;48.23
43804;BME280;29430;52.924;-2.388;2023-04-25T22:08:58;99480.53;;;7.84;48.36
43804;BME280;29430;52.924;-2.388;2023-04-25T22:13:49;99476.16;;;7.77;48.84
43804;BME280;29430;52.924;-2.388;2023-04-25T22:18:42;99472.03;;;7.74;49.17
43804;BME280;29430;52.924;-2.388;2023-04-25T22:23:36;99476.56;;;7.67;48.57
43804;BME280;29430;52.924;-2.388;2023-04-25T22:28:28;99467.00;;;7.64;48.86
43804;BME280;29430;52.924;-2.388;2023-04-25T22:33:20;99478.00;;;7.63;49.12
43804;BME280;29430;52.924;-2.388;2023-04-25T22:38:12;99467.41;;;7.55;49.78
43804;BME280;29430;52.924;-2.388;2023-04-25T22:43:05;99467.81;;;7.51;50.42
43804;BME280;29430;52.924;-2.388;2023-04-25T22:47:57;99478.81;;;7.43;50.16
43804;BME280;29430;52.924;-2.388;2023-04-25T22:52:48;99468.81;;;7.37;50.06
43804;BME280;29430;52.924;-2.388;2023-04-25T22:57:40;99468.19;;;7.35;50.42
43804;BME280;29430;52.924;-2.388;2023-04-25T23:02:32;99473.97;;;7.32;50.38
43804;BME280;29430;52.924;-2.388;2023-04-25T23:07:24;99471.47;;;7.30;49.99
43804;BME280;29430;52.924;-2.388;2023-04-25T23:12:17;99486.22;;;7.28;50.44
43804;BME280;29430;52.924;-2.388;2023-04-25T23:17:09;99472.09;;;7.26;50.93
43804;BME280;29430;52.924;-2.388;2023-04-25T23:22:02;99478.28;;;7.20;50.99
43804;BME280;29430;52.924;-2.388;2023-04-25T23:26:54;99481.59;;;7.15;50.66
43804;BME280;29430;52.924;-2.388;2023-04-25T23:31:46;99475.16;;;7.09;50.29
43804;BME280;29430;52.924;-2.388;2023-04-25T23:36:37;99466.41;;;7.07;50.59
43804;BME280;29430;52.924;-2.388;2023-04-25T23:41:29;99469.91;;;7.01;50.85
43804;BME280;29430;52.924;-2.388;2023-04-25T23:46:21;99464.91;;;6.98;51.25
43804;BME280;29430;52.924;-2.388;2023-04-25T23:51:13;99465.31;;;6.95;51.12
43804;BME280;29430;52.924;-2.388;2023-04-25T23:56:05;99456.63;;;6.93;51.78
